createdAt,value
2023-02-02T00:01:01.619Z,2.03
2023-02-02T00:03:28.689Z,2.38
2023-02-02T00:05:55.818Z,2.10
2023-02-02T00:08:23.935Z,2.78
2023-02-02T00:10:51.034Z,2.83
2023-02-02T00:13:18.345Z,2.30
2023-02-02T00:15:45.546Z,2.30
2023-02-02T00:18:12.828Z,2.25
2023-02-02T00:20:40.253Z,2.60
2023-02-02T00:23:07.452Z,2.53
2023-02-02T00:25:35.673Z,2.40
2023-02-02T00:28:02.869Z,2.72
2023-02-02T00:30:29.963Z,2.60
2023-02-02T00:32:57.111Z,2.20
2023-02-02T00:35:24.914Z,2.15
2023-02-02T00:37:52.300Z,2.55
2023-02-02T00:40:19.403Z,3.05
2023-02-02T00:42:50.399Z,2.75
2023-02-02T00:45:17.839Z,2.38
2023-02-02T00:47:46.932Z,2.97
2023-02-02T00:50:19.374Z,2.05
2023-02-02T00:52:46.994Z,2.60
2023-02-02T00:55:14.898Z,2.17
2023-02-02T00:57:44.158Z,2.40
2023-02-02T01:00:29.531Z,2.45
2023-02-02T01:02:57.890Z,2.70
2023-02-02T01:05:25.372Z,2.17
2023-02-02T01:07:52.797Z,2.83
2023-02-02T01:10:20.130Z,2.30
2023-02-02T01:12:47.285Z,2.80
2023-02-02T01:15:14.410Z,2.17
2023-02-02T01:17:41.507Z,2.03
2023-02-02T01:20:09.159Z,1.58
2023-02-02T01:22:38.468Z,1.90
2023-02-02T01:25:05.959Z,1.60
2023-02-02T01:27:33.051Z,1.70
2023-02-02T01:30:00.178Z,1.40
2023-02-02T01:32:29.305Z,1.52
2023-02-02T01:34:56.490Z,1.08
2023-02-02T01:37:23.657Z,1.10
2023-02-02T01:39:50.825Z,1.65
2023-02-02T01:42:21.690Z,0.85
2023-02-02T01:44:51.597Z,1.33
2023-02-02T01:47:20.310Z,1.08
2023-02-02T01:49:47.979Z,1.40
2023-02-02T01:52:17.111Z,1.40
2023-02-02T01:54:52.452Z,1.20
2023-02-02T01:57:23.326Z,1.65
2023-02-02T01:59:50.571Z,1.65
2023-02-02T02:02:17.851Z,1.80
2023-02-02T02:04:45.063Z,1.40
2023-02-02T02:07:12.606Z,1.35
2023-02-02T02:09:40.180Z,1.70
2023-02-02T02:12:16.720Z,1.35
2023-02-02T02:15:03.125Z,1.83
2023-02-02T02:18:18.158Z,1.45
2023-02-02T02:21:18.906Z,1.70
2023-02-02T02:24:34.801Z,1.98
2023-02-02T02:27:01.874Z,1.83
2023-02-02T02:29:32.563Z,1.92
2023-02-02T02:32:06.338Z,1.98
2023-02-02T02:34:48.814Z,2.10
2023-02-02T02:37:38.988Z,1.90
2023-02-02T02:40:12.623Z,1.98
2023-02-02T02:42:45.170Z,2.00
2023-02-02T02:45:13.670Z,2.58
2023-02-02T02:47:42.271Z,2.03
2023-02-02T02:50:10.075Z,2.97
2023-02-02T02:52:37.641Z,2.60
2023-02-02T02:55:05.775Z,1.92
2023-02-02T02:57:50.558Z,2.78
2023-02-02T03:00:35.693Z,2.28
2023-02-02T03:03:02.749Z,2.30
2023-02-02T03:05:32.742Z,2.15
2023-02-02T03:08:06.152Z,2.53
2023-02-02T03:10:33.462Z,2.80
2023-02-02T03:13:00.581Z,1.98
2023-02-02T03:15:27.688Z,1.52
2023-02-02T03:17:55.202Z,2.92
2023-02-02T03:20:22.538Z,2.17
2023-02-02T03:22:49.777Z,2.15
2023-02-02T03:25:16.952Z,2.35
2023-02-02T03:27:44.211Z,2.08
2023-02-02T03:30:13.009Z,2.25
2023-02-02T03:32:40.594Z,2.03
2023-02-02T03:35:08.044Z,2.80
2023-02-02T03:37:35.525Z,3.45
2023-02-02T03:40:02.629Z,1.98
2023-02-02T03:42:29.787Z,3.15
2023-02-02T03:44:56.913Z,3.20
2023-02-02T03:47:24.043Z,2.03
2023-02-02T03:49:51.118Z,3.22
2023-02-02T03:52:18.221Z,2.10
2023-02-02T03:54:45.381Z,2.97
2023-02-02T03:57:12.506Z,2.90
2023-02-02T03:59:39.597Z,2.10
2023-02-02T04:02:06.688Z,2.45
2023-02-02T04:04:34.288Z,3.13
2023-02-02T04:07:01.826Z,2.13
2023-02-02T04:09:28.949Z,2.67
2023-02-02T04:11:56.015Z,2.63
2023-02-02T04:14:23.083Z,2.70
2023-02-02T04:16:50.211Z,1.92
2023-02-02T04:19:17.415Z,2.42
2023-02-02T04:21:44.532Z,2.45
2023-02-02T04:24:12.185Z,2.85
2023-02-02T04:26:39.380Z,2.50
2023-02-02T04:29:06.491Z,2.22
2023-02-02T04:31:33.606Z,2.03
2023-02-02T04:34:00.891Z,2.13
2023-02-02T04:36:28.273Z,2.30
2023-02-02T04:38:55.819Z,2.70
2023-02-02T04:41:23.354Z,2.25
2023-02-02T04:43:50.467Z,2.67
2023-02-02T04:46:17.784Z,2.03
2023-02-02T04:48:44.936Z,1.85
2023-02-02T04:51:13.700Z,2.10
2023-02-02T04:53:42.505Z,2.00
2023-02-02T04:56:11.199Z,2.55
2023-02-02T04:58:38.407Z,2.13
2023-02-02T05:01:09.363Z,2.08
2023-02-02T05:03:36.500Z,2.00
2023-02-02T05:06:03.994Z,2.15
2023-02-02T05:08:31.512Z,2.88
2023-02-02T05:10:58.795Z,2.20
2023-02-02T05:13:25.926Z,3.45
2023-02-02T05:15:54.297Z,2.08
2023-02-02T05:18:22.088Z,2.63
2023-02-02T05:20:49.286Z,2.55
2023-02-02T05:23:16.446Z,2.92
2023-02-02T05:25:43.614Z,3.38
2023-02-02T05:28:10.723Z,2.67
2023-02-02T05:30:40.348Z,2.33
2023-02-02T05:33:07.523Z,2.60
2023-02-02T05:35:34.659Z,3.03
2023-02-02T05:38:01.757Z,2.63
2023-02-02T05:40:28.954Z,3.00
2023-02-02T05:42:56.145Z,2.22
2023-02-02T05:45:23.987Z,2.67
2023-02-02T05:47:54.765Z,1.98
2023-02-02T05:50:21.891Z,2.50
2023-02-02T05:53:00.963Z,2.17
2023-02-02T05:55:28.102Z,2.75
2023-02-02T05:57:55.668Z,2.40
2023-02-02T06:00:23.067Z,2.17
2023-02-02T06:02:50.167Z,2.70
2023-02-02T06:05:17.359Z,1.60
2023-02-02T06:07:44.441Z,2.80
2023-02-02T06:10:11.582Z,1.70
2023-02-02T06:12:38.706Z,3.13
2023-02-02T06:15:06.490Z,2.78
2023-02-02T06:17:33.604Z,2.88
2023-02-02T06:20:00.795Z,1.70
2023-02-02T06:22:28.027Z,2.50
2023-02-02T06:24:55.133Z,2.88
2023-02-02T06:27:22.262Z,2.10
2023-02-02T06:29:49.435Z,2.28
2023-02-02T06:32:16.573Z,2.60
2023-02-02T06:34:43.760Z,2.35
2023-02-02T06:37:10.912Z,2.10
2023-02-02T06:39:38.043Z,2.67
2023-02-02T06:42:19.377Z,2.40
2023-02-02T06:44:48.233Z,2.38
2023-02-02T06:47:15.374Z,2.20
2023-02-02T06:49:42.518Z,2.05
2023-02-02T06:52:09.631Z,2.20
2023-02-02T06:54:36.741Z,2.10
2023-02-02T06:57:03.870Z,2.60
2023-02-02T06:59:30.990Z,1.92
2023-02-02T07:01:58.167Z,2.08
2023-02-02T07:04:25.385Z,2.45
2023-02-02T07:06:52.519Z,2.33
2023-02-02T07:09:19.620Z,2.33
2023-02-02T07:11:46.758Z,1.95
2023-02-02T07:14:14.338Z,2.42
2023-02-02T07:16:41.428Z,2.97
2023-02-02T07:19:08.682Z,1.90
2023-02-02T07:21:36.316Z,2.55
2023-02-02T07:24:04.629Z,2.67
2023-02-02T07:26:31.994Z,2.20
2023-02-02T07:28:59.168Z,2.40
2023-02-02T07:31:26.999Z,3.35
2023-02-02T07:33:54.528Z,2.40
2023-02-02T07:36:23.459Z,2.45
2023-02-02T07:38:53.721Z,3.08
2023-02-02T07:41:20.943Z,2.55
2023-02-02T07:43:48.298Z,2.38
2023-02-02T07:46:15.968Z,2.72
2023-02-02T07:48:43.223Z,2.65
2023-02-02T07:51:12.819Z,2.45
2023-02-02T07:53:40.660Z,2.65
2023-02-02T07:56:08.809Z,2.83
2023-02-02T07:58:36.094Z,2.70
2023-02-02T08:01:07.177Z,2.05
2023-02-02T08:03:35.129Z,2.65
2023-02-02T08:06:02.529Z,2.00
2023-02-02T08:08:29.679Z,2.20
2023-02-02T08:10:56.778Z,2.28
2023-02-02T08:13:24.019Z,2.42
2023-02-02T08:15:51.364Z,2.35
2023-02-02T08:18:18.509Z,2.13
2023-02-02T08:20:45.732Z,2.75
2023-02-02T08:23:15.816Z,2.25
2023-02-02T08:25:43.463Z,2.70
2023-02-02T08:28:10.538Z,3.05
2023-02-02T08:30:37.720Z,2.30
2023-02-02T08:33:04.865Z,2.10
2023-02-02T08:35:32.017Z,2.10
2023-02-02T08:38:02.840Z,2.70
2023-02-02T08:40:30.018Z,1.73
2023-02-02T08:42:57.258Z,2.33
2023-02-02T08:46:01.275Z,2.00
2023-02-02T08:48:12.965Z,2.60
2023-02-02T08:50:40.272Z,2.08
2023-02-02T08:53:07.439Z,2.03
2023-02-02T08:55:34.613Z,2.00
2023-02-02T08:58:01.721Z,2.03
2023-02-02T09:00:28.807Z,2.13
2023-02-02T09:02:55.958Z,2.08
2023-02-02T09:05:23.425Z,2.13
2023-02-02T09:07:50.865Z,2.10
2023-02-02T09:10:18.112Z,1.70
2023-02-02T09:12:45.251Z,2.00
2023-02-02T09:15:12.806Z,2.05
2023-02-02T09:17:39.963Z,2.53
2023-02-02T09:20:07.363Z,2.20
2023-02-02T09:22:34.534Z,1.92
2023-02-02T09:25:02.179Z,2.47
2023-02-02T09:27:29.294Z,1.88
2023-02-02T09:29:56.372Z,2.10
2023-02-02T09:32:23.512Z,2.00
2023-02-02T09:34:50.677Z,2.58
2023-02-02T09:37:17.768Z,2.42
2023-02-02T09:39:44.916Z,2.97
2023-02-02T09:42:21.525Z,2.10
2023-02-02T09:45:01.696Z,2.08
2023-02-02T09:47:37.821Z,1.77
2023-02-02T09:50:04.991Z,2.05
2023-02-02T09:52:38.840Z,1.90
2023-02-02T09:55:11.995Z,1.92
2023-02-02T10:00:07.204Z,1.90
2023-02-02T10:02:40.733Z,2.10
2023-02-02T10:05:21.801Z,2.22
2023-02-02T10:07:51.016Z,2.53
2023-02-02T10:10:21.050Z,2.20
2023-02-02T10:12:48.256Z,1.60
2023-02-02T10:15:20.447Z,1.98
2023-02-02T10:18:05.843Z,2.08
2023-02-02T10:20:45.882Z,1.98
2023-02-02T10:23:22.027Z,2.38
2023-02-02T10:26:02.020Z,3.15
2023-02-02T10:29:10.338Z,2.72
2023-02-02T10:31:45.749Z,2.22
2023-02-02T10:34:27.871Z,2.40
2023-02-02T10:37:04.468Z,2.20
2023-02-02T10:39:38.341Z,2.00
2023-02-02T10:42:16.531Z,2.38
2023-02-02T10:44:53.003Z,2.33
2023-02-02T10:47:28.154Z,2.70
2023-02-02T10:50:01.227Z,2.70
2023-02-02T10:52:34.815Z,2.78
2023-02-02T10:55:04.550Z,2.47
2023-02-02T10:57:35.018Z,1.95
2023-02-02T11:00:39.107Z,2.28
2023-02-02T11:03:07.176Z,2.55
2023-02-02T11:05:53.272Z,2.58
2023-02-02T11:08:28.775Z,2.35
2023-02-02T11:10:56.668Z,1.90
2023-02-02T11:13:26.928Z,2.15
2023-02-02T11:16:14.021Z,2.03
2023-02-02T11:18:44.065Z,2.38
2023-02-02T11:21:22.685Z,1.95
2023-02-02T11:24:21.377Z,2.40
2023-02-02T11:26:50.590Z,2.13
2023-02-02T11:29:39.190Z,2.00
2023-02-02T11:32:18.379Z,1.70
2023-02-02T11:34:45.509Z,1.77
2023-02-02T11:37:20.777Z,2.35
2023-02-02T11:39:48.162Z,1.83
2023-02-02T11:42:17.258Z,2.22
2023-02-02T11:44:47.267Z,2.03
2023-02-02T11:47:31.059Z,1.85
2023-02-02T11:49:59.814Z,1.88
2023-02-02T11:52:32.246Z,1.60
2023-02-02T11:55:01.631Z,2.00
2023-02-02T11:57:30.526Z,1.88
2023-02-02T12:00:06.910Z,1.73
2023-02-02T12:02:34.689Z,2.17
2023-02-02T12:05:10.996Z,1.92
2023-02-02T12:07:38.276Z,1.85
2023-02-02T12:10:17.384Z,1.48
2023-02-02T12:12:51.176Z,1.63
2023-02-02T12:15:24.392Z,1.90
2023-02-02T12:17:54.447Z,1.38
2023-02-02T12:20:31.237Z,1.40
2023-02-02T12:23:04.477Z,1.92
2023-02-02T12:25:57.652Z,1.60
2023-02-02T12:28:49.984Z,1.98
2023-02-02T12:31:29.362Z,2.08
2023-02-02T12:34:02.930Z,1.67
2023-02-02T12:36:41.398Z,1.73
2023-02-02T12:39:11.124Z,1.30
2023-02-02T12:41:51.699Z,1.23
2023-02-02T12:44:25.302Z,2.00
2023-02-02T12:47:06.634Z,1.77
2023-02-02T12:49:39.511Z,1.70
2023-02-02T12:52:21.666Z,1.75
2023-02-02T12:54:57.308Z,1.70
2023-02-02T12:57:37.147Z,1.58
2023-02-02T13:00:04.380Z,1.60
2023-02-02T13:02:37.876Z,2.28
2023-02-02T13:05:11.176Z,1.70
2023-02-02T13:07:41.073Z,2.00
2023-02-02T13:10:29.572Z,1.60
2023-02-02T13:13:14.901Z,1.48
2023-02-02T13:15:47.088Z,2.13
2023-02-02T13:18:32.895Z,2.13
2023-02-02T13:23:56.491Z,1.88
2023-02-02T13:26:26.786Z,1.38
2023-02-02T13:29:23.315Z,1.60
2023-02-02T13:31:56.219Z,1.52
2023-02-02T13:34:42.259Z,1.73
2023-02-02T13:37:17.130Z,2.25
2023-02-02T13:39:55.711Z,2.03
2023-02-02T13:42:37.167Z,1.80
2023-02-02T13:45:23.585Z,2.08
2023-02-02T13:47:56.323Z,2.35
2023-02-02T13:50:30.006Z,1.80
2023-02-02T13:52:59.897Z,1.40
2023-02-02T13:55:35.868Z,1.33
2023-02-02T13:58:16.826Z,1.52
2023-02-02T14:00:49.349Z,1.67
2023-02-02T14:03:28.350Z,1.20
2023-02-02T14:06:15.186Z,1.10
2023-02-02T14:08:53.327Z,1.38
2023-02-02T14:11:26.289Z,1.15
2023-02-02T14:14:14.523Z,0.98
2023-02-02T14:16:41.579Z,1.15
2023-02-02T14:19:19.383Z,1.25
2023-02-02T14:21:49.212Z,1.33
2023-02-02T14:24:22.211Z,1.17
2023-02-02T14:26:50.946Z,0.88
2023-02-02T14:29:31.368Z,0.85
2023-02-02T14:31:58.737Z,0.63
2023-02-02T14:34:29.026Z,1.25
2023-02-02T14:37:03.560Z,1.20
2023-02-02T14:39:30.834Z,0.82
2023-02-02T14:42:28.924Z,0.80
2023-02-02T14:45:07.844Z,1.05
2023-02-02T14:47:44.099Z,1.30
2023-02-02T14:50:16.206Z,0.95
2023-02-02T14:52:43.444Z,1.48
2023-02-02T14:55:18.168Z,0.98
2023-02-02T14:57:45.266Z,1.00
2023-02-02T15:00:22.497Z,2.50
2023-02-02T15:02:53.336Z,1.40
2023-02-02T15:05:30.595Z,1.70
2023-02-02T15:08:08.646Z,1.80
2023-02-02T15:10:53.944Z,2.42
2023-02-02T15:13:37.481Z,3.10
2023-02-02T15:16:13.924Z,1.65
2023-02-02T15:18:47.251Z,2.03
2023-02-02T15:23:45.434Z,2.45
2023-02-02T15:26:18.480Z,2.20
2023-02-02T15:28:48.425Z,3.20
2023-02-02T15:31:20.300Z,2.60
2023-02-02T15:33:48.956Z,2.45
2023-02-02T15:36:16.035Z,2.75
2023-02-02T15:38:43.907Z,2.67
2023-02-02T15:41:22.912Z,3.28
2023-02-02T15:43:50.298Z,2.40
2023-02-02T15:46:24.243Z,2.95
2023-02-02T15:49:33.420Z,2.88
2023-02-02T15:52:02.287Z,2.60
2023-02-02T15:54:31.412Z,2.78
2023-02-02T15:57:00.456Z,3.15
2023-02-02T15:59:29.311Z,2.17
2023-02-02T16:01:59.480Z,2.38
2023-02-02T16:04:34.937Z,2.20
2023-02-02T16:07:02.669Z,2.20
2023-02-02T16:09:33.698Z,2.50
2023-02-02T16:12:01.765Z,2.63
2023-02-02T16:14:28.990Z,2.63
2023-02-02T16:16:56.082Z,2.60
2023-02-02T16:19:25.141Z,2.58
2023-02-02T16:21:56.854Z,2.92
2023-02-02T16:24:29.255Z,3.22
2023-02-02T16:26:58.983Z,2.97
2023-02-02T16:29:28.052Z,2.60
2023-02-02T16:31:55.830Z,3.13
2023-02-02T16:34:41.047Z,3.28
2023-02-02T16:37:22.440Z,3.10
2023-02-02T16:39:50.179Z,3.30
2023-02-02T16:42:27.697Z,3.45
2023-02-02T16:44:55.857Z,2.83
2023-02-02T16:47:25.683Z,2.58
2023-02-02T16:50:13.007Z,2.90
2023-02-02T16:52:58.869Z,2.70
2023-02-02T16:58:04.825Z,2.90
2023-02-02T17:00:33.375Z,2.95
2023-02-02T17:03:06.551Z,2.67
2023-02-02T17:08:05.399Z,3.50
2023-02-02T17:10:36.625Z,3.10
2023-02-02T17:13:04.861Z,2.92
2023-02-02T17:15:36.105Z,3.10
2023-02-02T17:18:04.607Z,3.53
2023-02-02T17:20:33.835Z,3.35
2023-02-02T17:23:06.692Z,3.47
2023-02-02T17:25:36.957Z,4.00
2023-02-02T17:28:04.828Z,3.58
2023-02-02T17:30:32.060Z,3.30
2023-02-02T17:32:59.245Z,3.30
2023-02-02T17:35:27.807Z,3.10
2023-02-02T17:37:57.623Z,3.20
2023-02-02T17:40:25.091Z,3.85
2023-02-02T17:42:53.493Z,3.33
2023-02-02T17:45:23.024Z,3.20
2023-02-02T17:47:51.129Z,3.33
2023-02-02T17:50:18.535Z,3.50
2023-02-02T17:52:46.063Z,3.03
2023-02-02T17:55:14.318Z,3.13
2023-02-02T17:57:41.521Z,3.22
2023-02-02T18:00:09.108Z,3.88
2023-02-02T18:02:36.314Z,2.88
2023-02-02T18:05:04.827Z,3.22
2023-02-02T18:07:31.965Z,4.10
2023-02-02T18:09:59.223Z,3.50
2023-02-02T18:12:26.562Z,3.65
2023-02-02T18:14:53.625Z,3.60
2023-02-02T18:17:21.159Z,3.78
2023-02-02T18:19:51.119Z,3.70
2023-02-02T18:22:18.642Z,3.83
2023-02-02T18:24:45.831Z,4.70
2023-02-02T18:27:13.008Z,4.28
2023-02-02T18:29:40.108Z,4.13
2023-02-02T18:32:07.294Z,4.80
2023-02-02T18:34:35.812Z,3.60
2023-02-02T18:37:03.880Z,4.40
2023-02-02T18:39:31.734Z,4.00
2023-02-02T18:41:58.879Z,3.90
2023-02-02T18:44:26.101Z,3.75
2023-02-02T18:46:53.595Z,3.80
2023-02-02T18:49:21.031Z,4.18
2023-02-02T18:51:48.849Z,3.90
2023-02-02T18:54:16.020Z,4.70
2023-02-02T18:56:43.219Z,3.67
2023-02-02T18:59:10.397Z,3.42
2023-02-02T19:01:37.588Z,4.00
2023-02-02T19:04:04.944Z,4.15
2023-02-02T19:06:50.786Z,3.55
2023-02-02T19:11:47.286Z,4.20
2023-02-02T19:14:26.472Z,4.25
2023-02-02T19:16:54.809Z,3.35
2023-02-02T19:19:30.205Z,3.80
2023-02-02T19:21:58.267Z,4.63
2023-02-02T19:24:26.778Z,4.45
2023-02-02T19:26:53.956Z,3.90
2023-02-02T19:29:25.359Z,3.90
2023-02-02T19:32:18.205Z,3.80
2023-02-02T19:34:45.924Z,3.55
2023-02-02T19:37:21.920Z,3.70
2023-02-02T19:39:49.050Z,4.00
2023-02-02T19:42:16.286Z,3.72
2023-02-02T19:44:43.397Z,3.60
2023-02-02T19:47:31.423Z,4.05
2023-02-02T19:49:59.421Z,4.03
2023-02-02T19:52:26.949Z,4.15
2023-02-02T19:54:54.520Z,4.55
2023-02-02T19:57:36.596Z,4.45
2023-02-02T20:00:20.119Z,4.30
2023-02-02T20:02:58.708Z,3.85
2023-02-02T20:05:36.089Z,3.97
2023-02-02T20:08:18.466Z,4.15
2023-02-02T20:10:46.283Z,4.00
2023-02-02T20:13:16.437Z,4.10
2023-02-02T20:15:43.572Z,3.80
2023-02-02T20:18:21.611Z,3.80
2023-02-02T20:20:50.611Z,4.55
2023-02-02T20:23:29.494Z,3.95
2023-02-02T20:25:56.713Z,3.45
2023-02-02T20:28:34.958Z,3.42
2023-02-02T20:31:02.905Z,3.40
2023-02-02T20:33:30.085Z,3.08
2023-02-02T20:35:57.262Z,3.50
2023-02-02T20:38:25.553Z,3.20
2023-02-02T20:40:52.808Z,2.85
2023-02-02T20:43:19.950Z,3.22
2023-02-02T20:45:47.532Z,3.10
2023-02-02T20:48:15.316Z,2.83
2023-02-02T20:50:42.932Z,2.67
2023-02-02T20:53:10.655Z,2.95
2023-02-02T20:55:37.764Z,2.70
2023-02-02T20:58:05.344Z,3.47
2023-02-02T21:00:32.893Z,2.60
2023-02-02T21:03:00.033Z,3.03
2023-02-02T21:05:27.151Z,3.10
2023-02-02T21:07:57.309Z,3.33
2023-02-02T21:10:25.639Z,2.85
2023-02-02T21:12:53.004Z,2.83
2023-02-02T21:15:20.211Z,2.80
2023-02-02T21:17:47.339Z,3.08
2023-02-02T21:20:14.907Z,3.13
2023-02-02T21:22:42.376Z,3.20
2023-02-02T21:25:10.361Z,2.85
2023-02-02T21:27:40.993Z,2.97
2023-02-02T21:30:11.803Z,2.67
2023-02-02T21:32:39.009Z,2.83
2023-02-02T21:35:06.676Z,2.55
2023-02-02T21:37:37.326Z,2.95
2023-02-02T21:40:12.652Z,2.58
2023-02-02T21:42:39.847Z,2.63
2023-02-02T21:45:33.458Z,2.92
2023-02-02T21:48:02.451Z,2.35
2023-02-02T21:50:32.023Z,2.35
2023-02-02T21:53:08.017Z,2.50
2023-02-02T21:55:36.661Z,2.92
2023-02-02T21:58:17.953Z,2.63
2023-02-02T22:00:45.069Z,2.50
2023-02-02T22:03:46.349Z,2.33
2023-02-02T22:06:28.466Z,2.03
2023-02-02T22:09:15.893Z,2.00
2023-02-02T22:11:51.746Z,2.40
2023-02-02T22:14:23.478Z,2.40
2023-02-02T22:16:52.541Z,1.85
2023-02-02T22:19:24.621Z,2.40
2023-02-02T22:21:51.707Z,2.28
2023-02-02T22:24:18.859Z,2.00
2023-02-02T22:26:47.605Z,2.10
2023-02-02T22:29:17.058Z,2.22
2023-02-02T22:31:44.381Z,2.15
2023-02-02T22:34:11.523Z,2.30
2023-02-02T22:36:38.599Z,2.67
2023-02-02T22:39:05.702Z,1.80
2023-02-02T22:41:32.875Z,1.92
2023-02-02T22:44:00.037Z,1.95
2023-02-02T22:46:27.147Z,1.85
2023-02-02T22:48:54.259Z,2.17
2023-02-02T22:51:21.419Z,2.00
2023-02-02T22:53:48.525Z,2.05
2023-02-02T22:56:15.645Z,2.25
2023-02-02T22:58:42.706Z,2.03
2023-02-02T23:01:11.547Z,2.30
2023-02-02T23:03:38.638Z,2.47
2023-02-02T23:06:05.731Z,3.22
2023-02-02T23:08:33.895Z,2.65
2023-02-02T23:11:01.135Z,2.40
2023-02-02T23:13:28.292Z,2.30
2023-02-02T23:15:56.667Z,2.33
2023-02-02T23:18:23.815Z,2.05
2023-02-02T23:20:51.044Z,2.88
2023-02-02T23:23:18.179Z,2.55
2023-02-02T23:25:45.282Z,2.30
2023-02-02T23:28:13.103Z,2.20
2023-02-02T23:30:40.281Z,2.40
2023-02-02T23:33:07.478Z,2.58
2023-02-02T23:35:34.659Z,2.28
2023-02-02T23:38:01.825Z,2.30
2023-02-02T23:40:29.158Z,2.00
2023-02-02T23:42:56.370Z,2.20
2023-02-02T23:45:23.564Z,2.58
2023-02-02T23:47:50.670Z,2.35
2023-02-02T23:50:17.860Z,2.83
2023-02-02T23:52:44.991Z,2.13
2023-02-02T23:55:12.083Z,2.78
2023-02-02T23:57:39.346Z,2.33
